Time;durP1;ratioP1;P1;durP2;ratioP2;P2;SDS_P1;SDS_P2;PMS_P1;PMS_P2;Temp;Humidity;BMP_temperature;BMP_pressure;BME280_temperature;BME280_humidity;BME280_pressure;Samples;Min_cycle;Max_cycle;Signal;HPM_P1;HPM_P2
2022/07/20 00:00:33;;;;;;;1999.90;999.90;;;24.40;99.90;;;;;;4890176;29;20053;-85
2022/07/20 00:03:03;;;;;;;1999.90;999.90;;;24.30;99.90;;;;;;4876154;29;20053;-81
2022/07/20 00:05:29;;;;;;;1999.90;999.90;;;24.20;99.90;;;;;;4893559;29;20147;-82
2022/07/20 00:07:55;;;;;;;777.35;538.15;;;24.20;99.90;;;;;;4893626;29;20201;-82
2022/07/20 00:13:05;;;;;;;1849.97;676.08;;;24.20;99.90;;;;;;4891104;29;20123;-84
2022/07/20 00:15:30;;;;;;;1999.90;999.90;;;24.10;99.90;;;;;;4891936;29;20052;-81
2022/07/20 00:17:56;;;;;;;1999.90;999.90;;;24.10;99.90;;;;;;4889827;29;20702;-80
2022/07/20 00:20:22;;;;;;;1999.90;999.90;;;24.00;99.90;;;;;;4892742;29;20128;-87
2022/07/20 00:22:48;;;;;;;1999.90;999.90;;;24.00;99.90;;;;;;4894206;29;20132;-80
2022/07/20 00:25:13;;;;;;;1141.00;607.17;;;24.00;99.90;;;;;;4890064;29;20044;-80
2022/07/20 00:27:39;;;;;;;1999.90;947.33;;;23.90;99.90;;;;;;4889642;29;20095;-80
2022/07/20 00:30:05;;;;;;;1353.43;902.35;;;23.80;99.90;;;;;;4894303;29;20054;-80
2022/07/20 00:32:36;;;;;;;1999.90;999.90;;;23.80;99.90;;;;;;4889512;29;20041;-85
2022/07/20 00:35:03;;;;;;;1999.90;999.90;;;23.70;99.90;;;;;;4891774;29;20056;-80
2022/07/20 00:37:28;;;;;;;819.95;517.35;;;23.60;99.90;;;;;;4892616;29;20075;-80
2022/07/20 00:39:54;;;;;;;873.95;409.25;;;23.50;99.90;;;;;;4877098;29;20565;-80
2022/07/20 00:42:20;;;;;;;764.15;693.92;;;23.50;99.90;;;;;;4892216;29;20040;-83
2022/07/20 00:44:45;;;;;;;1171.25;877.22;;;23.40;99.90;;;;;;4894080;29;20546;-80
2022/07/20 00:47:11;;;;;;;817.65;714.03;;;23.40;99.90;;;;;;4892849;29;20052;-81
2022/07/20 00:49:36;;;;;;;1999.90;999.90;;;23.30;99.90;;;;;;4894433;29;20139;-81
2022/07/20 00:52:02;;;;;;;501.33;413.58;;;23.30;99.90;;;;;;4888877;29;20064;-80
2022/07/20 00:54:28;;;;;;;1174.50;656.25;;;23.20;99.90;;;;;;4892703;29;20080;-82
2022/07/20 00:56:54;;;;;;;1251.60;724.22;;;23.20;99.90;;;;;;4877615;29;20410;-80
2022/07/20 00:59:20;;;;;;;1999.90;999.90;;;23.10;99.90;;;;;;4893053;29;20071;-81
2022/07/20 01:01:46;;;;;;;1999.90;999.90;;;23.10;99.90;;;;;;4892918;29;20057;-84
2022/07/20 01:04:12;;;;;;;1999.90;999.90;;;23.10;99.90;;;;;;4891086;29;20040;-84
2022/07/20 01:06:38;;;;;;;1999.90;999.90;;;23.10;99.90;;;;;;4893088;29;20104;-80
2022/07/20 01:09:04;;;;;;;1327.63;805.47;;;23.10;99.90;;;;;;4891868;29;20068;-80
2022/07/20 01:11:29;;;;;;;1999.90;999.90;;;23.10;99.90;;;;;;4891709;29;20147;-87
2022/07/20 01:14:06;;;;;;;1755.13;920.60;;;23.00;99.90;;;;;;4893943;29;20135;-80
2022/07/20 01:16:34;;;;;;;1999.90;999.90;;;23.00;99.90;;;;;;4893126;29;20564;-80
2022/07/20 01:19:00;;;;;;;1999.90;999.90;;;23.00;99.90;;;;;;4890931;29;20434;-80
2022/07/20 01:21:26;;;;;;;1020.10;721.50;;;22.90;99.90;;;;;;4892642;29;20037;-81
2022/07/20 01:23:52;;;;;;;1999.90;999.90;;;22.90;99.90;;;;;;4892364;29;20070;-81
2022/07/20 01:26:19;;;;;;;1391.72;853.45;;;22.90;99.90;;;;;;4889797;29;20080;-86
2022/07/20 01:28:45;;;;;;;1999.90;999.90;;;22.80;99.90;;;;;;4892295;29;20136;-80
2022/07/20 01:31:11;;;;;;;1230.18;687.05;;;22.70;99.90;;;;;;4892483;29;20131;-80
2022/07/20 01:33:36;;;;;;;662.38;241.82;;;22.70;99.90;;;;;;4893044;29;20044;-80
2022/07/20 01:36:03;;;;;;;613.33;569.88;;;22.60;99.90;;;;;;4890948;29;20052;-80
2022/07/20 01:38:28;;;;;;;920.63;842.83;;;22.60;99.90;;;;;;4885527;29;20112;-79
2022/07/20 01:40:54;;;;;;;906.30;828.58;;;22.70;99.90;;;;;;4890080;29;20447;-82
2022/07/20 01:43:20;;;;;;;670.42;620.72;;;22.50;99.90;;;;;;4891684;29;20044;-85
2022/07/20 01:45:45;;;;;;;619.88;573.72;;;22.50;99.90;;;;;;4878529;29;20070;-80
2022/07/20 01:48:11;;;;;;;1479.88;644.35;;;22.40;99.90;;;;;;4892936;29;20103;-86
2022/07/20 01:50:38;;;;;;;836.95;750.10;;;22.40;99.90;;;;;;4890766;29;20140;-79
2022/07/20 01:53:04;;;;;;;1218.60;917.77;;;22.40;99.90;;;;;;4894526;29;20052;-80
2022/07/20 01:55:30;;;;;;;1483.00;940.08;;;22.40;99.90;;;;;;4892099;29;20112;-79
2022/07/20 01:57:56;;;;;;;1090.57;935.03;;;22.40;99.90;;;;;;4892768;29;20044;-81
2022/07/20 02:00:22;;;;;;;841.58;572.97;;;22.40;99.90;;;;;;4890294;29;20501;-81
2022/07/20 02:02:48;;;;;;;827.05;752.72;;;22.40;99.90;;;;;;4890935;29;20052;-80
2022/07/20 02:05:14;;;;;;;1942.57;977.80;;;22.40;99.90;;;;;;4888352;29;20052;-80
2022/07/20 02:07:40;;;;;;;1643.38;881.40;;;22.40;99.90;;;;;;4889241;29;20052;-81
2022/07/20 02:10:08;;;;;;;1999.90;999.90;;;22.40;99.90;;;;;;4887601;29;20045;-80
2022/07/20 02:12:34;;;;;;;1673.60;724.88;;;22.40;99.90;;;;;;4887979;29;20494;-80
2022/07/20 02:14:59;;;;;;;1441.35;895.35;;;22.40;99.90;;;;;;4895808;29;20056;-80
2022/07/20 02:17:25;;;;;;;1999.90;999.90;;;22.30;99.90;;;;;;4895646;29;20108;-80
2022/07/20 02:19:51;;;;;;;1999.90;999.90;;;22.30;99.90;;;;;;4896025;29;20090;-80
2022/07/20 02:22:16;;;;;;;1999.90;847.40;;;22.30;99.90;;;;;;4898318;29;20486;-80
2022/07/20 02:24:42;;;;;;;753.45;689.95;;;22.20;99.90;;;;;;4901049;29;20140;-80
2022/07/20 02:27:08;;;;;;;862.80;795.75;;;22.30;99.90;;;;;;4899297;29;20053;-80
2022/07/20 02:29:33;;;;;;;748.25;688.47;;;22.30;99.90;;;;;;4900597;29;20044;-79
2022/07/20 02:31:59;;;;;;;1718.65;962.33;;;22.20;99.90;;;;;;4896299;29;20051;-82
2022/07/20 02:34:25;;;;;;;1517.45;937.60;;;22.20;99.90;;;;;;4898961;29;20056;-81
2022/07/20 02:36:50;;;;;;;928.15;718.85;;;22.20;99.90;;;;;;4897433;29;20060;-81
2022/07/20 02:39:16;;;;;;;1137.38;951.70;;;22.20;99.90;;;;;;4899194;29;20541;-80
2022/07/20 02:41:42;;;;;;;1545.68;790.80;;;22.20;99.90;;;;;;4880483;29;20056;-87
2022/07/20 02:44:07;;;;;;;1560.30;804.45;;;21.60;99.90;;;;;;4900476;29;20055;-85
2022/07/20 02:46:33;;;;;;;1999.90;999.90;;;22.10;99.90;;;;;;4917620;29;20513;-85
2022/07/20 02:48:59;;;;;;;593.30;538.80;;;22.90;99.90;;;;;;4900613;29;20056;-85
2022/07/20 02:51:25;;;;;;;1225.40;508.80;;;22.10;99.90;;;;;;4901357;29;20538;-85
2022/07/20 02:53:51;;;;;;;1000.08;894.33;;;22.10;99.90;;;;;;4900080;29;20048;-85
2022/07/20 02:56:16;;;;;;;732.05;662.88;;;22.10;99.90;;;;;;4901573;29;20056;-84
2022/07/20 02:58:42;;;;;;;1999.90;999.90;;;22.10;99.90;;;;;;4901385;29;20061;-88
2022/07/20 03:01:08;;;;;;;615.55;557.97;;;22.00;99.90;;;;;;4900549;29;20079;-86
2022/07/20 03:03:33;;;;;;;921.72;675.67;;;22.00;99.90;;;;;;4902329;29;20630;-86
2022/07/20 03:06:00;;;;;;;993.40;890.05;;;22.00;99.90;;;;;;4900928;29;20075;-85
2022/07/20 03:08:26;;;;;;;1828.72;932.00;;;22.00;99.90;;;;;;4884469;29;20143;-91
2022/07/20 03:10:52;;;;;;;1562.97;901.88;;;22.00;99.90;;;;;;4899650;29;20048;-85
2022/07/20 03:13:17;;;;;;;369.63;333.67;;;22.00;99.90;;;;;;4900445;29;20363;-88
2022/07/20 03:15:43;;;;;;;1020.70;900.78;;;21.90;99.90;;;;;;4885436;29;20075;-84
2022/07/20 03:18:09;;;;;;;1999.90;999.90;;;21.90;99.90;;;;;;4870045;29;20100;-85
2022/07/20 03:20:35;;;;;;;510.02;455.23;;;21.80;99.90;;;;;;4854265;29;20489;-85
2022/07/20 03:23:02;;;;;;;978.35;797.38;;;21.80;99.90;;;;;;4901102;29;20044;-85
2022/07/20 03:25:28;;;;;;;1063.53;950.78;;;21.90;99.90;;;;;;4901552;29;20096;-85
2022/07/20 03:27:57;;;;;;;470.40;420.17;;;21.80;99.90;;;;;;4884027;29;20084;-85
2022/07/20 03:30:24;;;;;;;1999.90;999.90;;;21.80;99.90;;;;;;4881787;29;20104;-84
2022/07/20 03:32:51;;;;;;;893.78;592.88;;;21.80;99.90;;;;;;4866796;29;20049;-89
2022/07/20 03:35:17;;;;;;;1610.47;914.80;;;21.80;99.90;;;;;;4898154;29;20048;-85
2022/07/20 03:37:43;;;;;;;1999.90;999.90;;;21.70;99.90;;;;;;4898052;29;20364;-85
2022/07/20 03:40:09;;;;;;;1079.13;967.33;;;21.70;99.90;;;;;;4898488;29;20044;-85
2022/07/20 03:42:36;;;;;;;890.17;447.60;;;21.10;99.90;;;;;;4897384;29;20052;-85
2022/07/20 03:45:03;;;;;;;1179.18;821.75;;;21.60;99.90;;;;;;4881865;29;20399;-91
2022/07/20 03:47:28;;;;;;;1999.90;999.90;;;21.60;99.90;;;;;;4881970;29;20119;-85
2022/07/20 03:49:54;;;;;;;506.10;456.83;;;21.60;99.90;;;;;;4898436;29;20599;-85
2022/07/20 03:52:22;;;;;;;1999.90;999.90;;;21.60;99.90;;;;;;4880559;29;20060;-85
2022/07/20 03:54:48;;;;;;;1451.32;910.45;;;21.60;99.90;;;;;;4898680;29;20053;-86
2022/07/20 03:57:14;;;;;;;479.00;432.85;;;21.60;99.90;;;;;;4897876;29;20056;-87
2022/07/20 03:59:40;;;;;;;1600.82;840.83;;;21.60;99.90;;;;;;4898216;29;20046;-85
2022/07/20 04:02:06;;;;;;;302.73;274.45;;;21.60;99.90;;;;;;4897060;29;20498;-85
2022/07/20 04:04:32;;;;;;;915.60;828.30;;;21.60;99.90;;;;;;4896714;29;20045;-85
2022/07/20 04:06:58;;;;;;;900.10;811.78;;;21.60;99.90;;;;;;4898122;29;20079;-85
2022/07/20 04:12:10;;;;;;;1208.47;846.40;;;21.50;99.90;;;;;;4897074;29;20049;-85
2022/07/20 04:14:36;;;;;;;;;;;21.60;99.90;;;;;;4897339;29;20056;-86
2022/07/20 04:17:02;;;;;;;1999.90;999.90;;;21.60;99.90;;;;;;4881156;29;19920;-85
2022/07/20 04:19:28;;;;;;;874.08;725.17;;;21.70;99.90;;;;;;4896989;29;20052;-88
2022/07/20 04:21:55;;;;;;;1699.70;916.25;;;21.70;99.90;;;;;;4897459;29;20136;-85
2022/07/20 04:24:22;;;;;;;1046.30;922.38;;;21.70;99.90;;;;;;4897730;29;20047;-85
2022/07/20 04:26:48;;;;;;;1999.90;999.90;;;21.60;99.90;;;;;;4897992;29;20104;-86
2022/07/20 04:29:14;;;;;;;1853.78;914.28;;;21.60;99.90;;;;;;4881026;29;20048;-90
2022/07/20 04:31:39;;;;;;;233.18;210.32;;;21.60;99.90;;;;;;4897166;29;20100;-89
2022/07/20 04:34:05;;;;;;;783.35;508.85;;;21.70;99.90;;;;;;4896786;29;20406;-86
2022/07/20 04:36:33;;;;;;;1999.90;999.90;;;21.60;99.90;;;;;;4866230;29;20087;-90
2022/07/20 04:38:59;;;;;;;947.78;654.13;;;21.60;99.90;;;;;;4896596;29;20075;-85
2022/07/20 04:41:25;;;;;;;1380.40;841.42;;;21.60;99.90;;;;;;4865735;29;20060;-85
2022/07/20 04:43:53;;;;;;;1987.07;913.78;;;21.70;99.90;;;;;;4881144;29;20174;-83
2022/07/20 04:46:19;;;;;;;981.50;880.50;;;21.70;99.90;;;;;;4896454;29;20486;-83
2022/07/20 04:48:45;;;;;;;560.20;502.10;;;21.70;99.90;;;;;;4865124;29;20090;-84
2022/07/20 04:51:14;;;;;;;808.78;731.88;;;21.70;99.90;;;;;;4897049;29;20541;-86
2022/07/20 04:53:40;;;;;;;1260.95;830.38;;;21.70;99.90;;;;;;4880380;29;20498;-85
2022/07/20 04:56:05;;;;;;;1612.20;804.17;;;21.70;99.90;;;;;;4894979;29;20119;-84
2022/07/20 04:58:31;;;;;;;1047.28;880.35;;;21.70;99.90;;;;;;4897224;29;20056;-84
2022/07/20 05:00:58;;;;;;;806.60;724.60;;;21.70;99.90;;;;;;4896274;29;20052;-84
2022/07/20 05:03:26;;;;;;;726.15;657.47;;;21.70;99.90;;;;;;4895736;29;20048;-83
2022/07/20 05:05:53;;;;;;;1011.90;918.63;;;21.80;99.90;;;;;;4880993;29;20049;-84
2022/07/20 05:08:19;;;;;;;731.47;659.65;;;21.80;99.90;;;;;;4897111;29;20048;-84
2022/07/20 05:10:44;;;;;;;1702.90;934.88;;;21.80;99.90;;;;;;4896876;29;20475;-85
2022/07/20 05:13:10;;;;;;;870.05;790.20;;;21.90;99.90;;;;;;4895827;29;20389;-84
2022/07/20 05:15:36;;;;;;;1999.90;851.30;;;22.00;99.90;;;;;;4880297;29;20055;-84
2022/07/20 05:18:05;;;;;;;1069.30;945.08;;;22.10;99.90;;;;;;4911192;29;20131;-83
2022/07/20 05:20:30;;;;;;;850.70;769.35;;;22.10;99.90;;;;;;4896256;29;20049;-85
2022/07/20 05:22:56;;;;;;;968.15;870.65;;;22.20;99.90;;;;;;4879648;29;20432;-87
2022/07/20 05:25:22;;;;;;;913.97;825.78;;;22.30;99.90;;;;;;4895954;29;20052;-84
2022/07/20 05:27:48;;;;;;;944.22;852.55;;;22.30;99.90;;;;;;4910928;29;20112;-84
2022/07/20 05:30:13;;;;;;;948.83;846.47;;;22.30;99.90;;;;;;4880555;29;20108;-84
2022/07/20 05:32:39;;;;;;;897.70;804.15;;;22.30;99.90;;;;;;4880403;29;20055;-84
2022/07/20 05:35:06;;;;;;;1018.53;879.58;;;22.40;99.90;;;;;;4896771;29;20498;-84
2022/07/20 05:37:32;;;;;;;1169.72;855.72;;;22.50;99.90;;;;;;4894738;29;20056;-85
2022/07/20 05:39:58;;;;;;;1067.97;892.88;;;22.60;99.90;;;;;;4880223;29;20059;-85
2022/07/20 05:42:24;;;;;;;902.95;808.55;;;22.60;99.90;;;;;;4879885;29;20129;-84
2022/07/20 05:44:49;;;;;;;610.92;529.60;;;22.60;99.90;;;;;;4880089;29;20120;-84
2022/07/20 05:47:17;;;;;;;469.58;422.58;;;22.60;99.90;;;;;;4879164;29;20048;-84
2022/07/20 05:49:45;;;;;;;;;;;22.60;99.90;;;;;;4880555;29;20090;-83
2022/07/20 05:52:11;;;;;;;1280.35;753.92;;;22.70;99.90;;;;;;4892975;29;20468;-89
2022/07/20 05:54:38;;;;;;;948.10;829.15;;;22.80;99.90;;;;;;4879866;29;20081;-83
2022/07/20 05:57:03;;;;;;;1006.00;811.03;;;22.80;99.90;;;;;;4896458;29;20052;-83
2022/07/20 05:59:29;;;;;;;832.22;762.45;;;22.10;99.90;;;;;;4895743;29;20526;-83
2022/07/20 06:01:55;;;;;;;1113.00;910.70;;;23.00;99.90;;;;;;4895558;29;20131;-85
2022/07/20 06:04:21;;;;;;;858.63;778.90;;;23.10;99.90;;;;;;4880199;29;20053;-83
2022/07/20 06:06:46;;;;;;;909.83;815.97;;;23.20;99.90;;;;;;4895647;29;20084;-84
2022/07/20 06:09:12;;;;;;;1076.32;765.67;;;23.30;99.90;;;;;;4896451;29;20109;-84
2022/07/20 06:11:38;;;;;;;640.15;575.70;;;23.50;99.90;;;;;;4894504;29;20111;-84
2022/07/20 06:14:03;;;;;;;832.20;742.78;;;23.60;99.90;;;;;;4894996;29;20068;-83
2022/07/20 06:16:29;;;;;;;1999.90;988.53;;;23.60;99.90;;;;;;4894968;29;20494;-84
2022/07/20 06:18:55;;;;;;;1629.93;867.08;;;23.70;99.90;;;;;;4894438;29;20063;-83
2022/07/20 06:21:23;;;;;;;891.33;805.25;;;23.60;99.90;;;;;;4895313;29;20107;-84
2022/07/20 06:23:49;;;;;;;631.50;568.58;;;23.70;99.90;;;;;;4895656;29;20079;-83
2022/07/20 06:26:15;;;;;;;1068.72;768.90;;;23.80;99.90;;;;;;4880150;29;20079;-82
2022/07/20 06:28:41;;;;;;;1172.78;655.85;;;23.90;99.90;;;;;;4895215;29;20052;-86
2022/07/20 06:31:07;;;;;;;853.95;765.15;;;24.00;99.90;;;;;;4896344;29;20479;-83
2022/07/20 06:33:33;;;;;;;1366.13;832.30;;;24.00;99.90;;;;;;4895461;29;20072;-83
2022/07/20 06:36:00;;;;;;;386.65;342.13;;;24.00;99.90;;;;;;4896812;29;20120;-84
2022/07/20 06:38:26;;;;;;;1999.90;999.90;;;24.10;99.90;;;;;;4895035;29;20159;-82
2022/07/20 06:40:51;;;;;;;793.22;720.35;;;24.20;99.90;;;;;;4880907;29;20150;-81
2022/07/20 06:43:17;;;;;;;1999.90;999.90;;;24.30;99.90;;;;;;4895760;29;20056;-82
2022/07/20 06:45:43;;;;;;;433.52;387.27;;;24.30;99.90;;;;;;4896424;29;20053;-82
2022/07/20 06:48:11;;;;;;;954.42;639.78;;;24.40;99.90;;;;;;4894683;29;20045;-83
2022/07/20 06:50:37;;;;;;;545.83;487.85;;;24.50;99.90;;;;;;4894790;29;20610;-81
2022/07/20 06:53:03;;;;;;;1999.90;999.90;;;24.60;99.90;;;;;;4895498;29;20135;-82
2022/07/20 06:55:28;;;;;;;1999.90;999.90;;;24.60;99.90;;;;;;4864208;29;20048;-82
2022/07/20 06:57:54;;;;;;;1999.90;999.90;;;24.80;99.90;;;;;;4895804;29;20132;-82
2022/07/20 07:00:20;;;;;;;1999.90;999.90;;;24.90;99.90;;;;;;4895188;29;20064;-83
2022/07/20 07:02:46;;;;;;;1999.90;999.90;;;25.00;99.90;;;;;;4895441;29;20056;-83
2022/07/20 07:05:12;;;;;;;978.83;681.22;;;25.10;99.90;;;;;;4914666;29;20080;-83
2022/07/20 07:07:37;;;;;;;276.00;226.60;;;25.10;99.90;;;;;;4898290;29;20139;-83
2022/07/20 07:10:03;;;;;;;1999.90;999.90;;;25.20;99.90;;;;;;4898624;29;20045;-82
2022/07/20 07:12:29;;;;;;;1999.90;999.90;;;25.30;99.90;;;;;;4897645;29;20048;-83
2022/07/20 07:14:55;;;;;;;1999.90;999.90;;;26.40;99.90;;;;;;4900860;29;20057;-82
2022/07/20 07:17:20;;;;;;;1999.90;999.90;;;27.90;99.90;;;;;;4900655;29;20073;-82
2022/07/20 07:19:46;;;;;;;1999.90;999.90;;;29.10;99.90;;;;;;4900312;29;20106;-90
2022/07/20 07:22:12;;;;;;;1999.90;999.90;;;30.20;99.90;;;;;;4883125;29;20044;-85
2022/07/20 07:24:37;;;;;;;1999.90;999.90;;;30.50;99.90;;;;;;4898218;29;20393;-84
2022/07/20 07:27:04;;;;;;;1999.90;999.90;;;31.20;99.90;;;;;;4882719;29;20050;-84
2022/07/20 07:29:30;;;;;;;1999.90;999.90;;;31.90;99.90;;;;;;4899785;29;20132;-83
2022/07/20 07:31:58;;;;;;;1999.90;999.90;;;33.00;99.90;;;;;;4899905;29;20160;-83
2022/07/20 07:34:28;;;;;;;1999.90;999.90;;;32.90;99.90;;;;;;4868015;29;20427;-84
2022/07/20 07:36:55;;;;;;;1999.90;999.90;;;33.50;99.90;;;;;;4897096;29;20045;-83
2022/07/20 07:39:21;;;;;;;1999.90;999.90;;;33.70;99.90;;;;;;4883112;29;20057;-83
2022/07/20 07:41:46;;;;;;;1999.90;999.90;;;34.00;99.90;;;;;;4897680;29;20215;-86
2022/07/20 07:44:12;;;;;;;1999.90;999.90;;;34.20;99.90;;;;;;4898346;29;20149;-88
2022/07/20 07:46:38;;;;;;;1999.90;999.90;;;33.90;99.90;;;;;;4897096;29;20040;-82
2022/07/20 07:49:05;;;;;;;1999.90;999.90;;;33.80;99.90;;;;;;4898514;29;20052;-82
2022/07/20 07:51:31;;;;;;;1999.90;999.90;;;33.90;99.90;;;;;;4897720;29;20123;-89
2022/07/20 07:53:57;;;;;;;1999.90;999.90;;;34.10;99.90;;;;;;4897816;29;20103;-82
2022/07/20 07:56:23;;;;;;;1999.90;999.90;;;34.70;99.90;;;;;;4897196;29;20049;-82
2022/07/20 07:58:49;;;;;;;1999.90;999.90;;;34.10;99.90;;;;;;4882299;29;20049;-83
2022/07/20 08:01:15;;;;;;;1999.90;999.90;;;34.30;99.70;;;;;;4897754;29;20054;-82
2022/07/20 08:03:41;;;;;;;1999.90;999.90;;;35.20;99.50;;;;;;4897571;29;20052;-82
2022/07/20 08:06:06;;;;;;;1999.90;999.90;;;34.70;99.20;;;;;;4867034;29;20059;-83
2022/07/20 08:08:35;;;;;;;1999.90;999.90;;;34.40;97.80;;;;;;4897634;29;20513;-86
2022/07/20 08:11:01;;;;;;;1999.90;999.90;;;35.40;99.80;;;;;;4882629;29;20048;-83
2022/07/20 08:13:27;;;;;;;1999.90;999.90;;;35.80;99.30;;;;;;4899186;29;20103;-83
2022/07/20 08:15:53;;;;;;;1999.90;999.90;;;35.70;99.90;;;;;;4897642;29;20629;-83
2022/07/20 08:18:20;;;;;;;1999.90;999.90;;;36.40;99.90;;;;;;4897824;29;20083;-84
2022/07/20 08:20:46;;;;;;;1999.90;999.90;;;37.10;99.40;;;;;;4898835;29;20104;-83
2022/07/20 08:23:12;;;;;;;1999.90;999.90;;;36.50;97.10;;;;;;4898353;29;20068;-82
2022/07/20 08:25:38;;;;;;;1479.80;934.05;;;35.60;99.30;;;;;;4897751;29;20044;-86
2022/07/20 08:28:19;;;;;;;982.58;888.33;;;36.30;99.20;;;;;;4897212;29;20048;-83
2022/07/20 08:30:46;;;;;;;892.30;806.03;;;36.70;99.20;;;;;;4896951;29;20045;-83
2022/07/20 08:33:12;;;;;;;980.53;885.75;;;37.10;98.20;;;;;;4897563;29;20067;-84
2022/07/20 08:35:38;;;;;;;930.55;844.88;;;37.60;98.60;;;;;;4897110;29;20052;-84
2022/07/20 08:38:05;;;;;;;893.08;816.88;;;38.10;98.50;;;;;;4896515;29;20127;-82
2022/07/20 08:40:40;;;;;;;942.10;842.97;;;37.80;97.50;;;;;;4898235;29;20087;-84
2022/07/20 08:43:06;;;;;;;976.00;887.17;;;36.50;96.30;;;;;;4897527;29;20040;-83
2022/07/20 08:45:34;;;;;;;992.35;903.75;;;36.80;98.00;;;;;;4897586;29;20093;-82
2022/07/20 08:48:03;;;;;;;1058.55;951.13;;;37.40;98.40;;;;;;4898012;29;20044;-86
2022/07/20 08:50:31;;;;;;;1106.85;986.60;;;37.50;99.90;;;;;;4896609;29;20053;-82
2022/07/20 08:52:57;;;;;;;1096.25;981.53;;;37.10;99.30;;;;;;4897613;29;20502;-82
2022/07/20 08:55:24;;;;;;;1012.72;918.60;;;37.80;99.90;;;;;;4898239;29;20053;-82
2022/07/20 08:57:50;;;;;;;;;;;38.40;99.10;;;;;;4896299;29;20447;-84
2022/07/20 09:00:16;;;;;;;987.38;892.70;;;38.40;95.70;;;;;;4880666;29;20067;-83
2022/07/20 09:02:59;;;;;;;966.05;880.97;;;38.60;95.80;;;;;;4896913;29;20088;-87
2022/07/20 09:05:28;;;;;;;942.72;860.88;;;38.90;95.50;;;;;;4898040;29;20057;-80
2022/07/20 09:07:55;;;;;;;992.50;898.90;;;38.10;94.60;;;;;;4908251;29;20193;-83
2022/07/20 09:10:24;;;;;;;1016.97;918.00;;;37.90;94.20;;;;;;4896879;29;20080;-86
2022/07/20 09:12:53;;;;;;;966.38;878.97;;;37.20;93.50;;;;;;4895423;29;20052;-82
2022/07/20 09:15:31;;;;;;;1020.38;921.05;;;37.20;94.10;;;;;;4896534;29;20048;-82
2022/07/20 09:18:13;;;;;;;1032.43;929.15;;;37.80;93.20;;;;;;4896234;29;20052;-81
2022/07/20 09:20:43;;;;;;;1002.13;911.95;;;38.50;93.90;;;;;;4896440;29;20049;-84
2022/07/20 09:23:12;;;;;;;1002.00;908.85;;;38.70;92.80;;;;;;4896185;29;20080;-83
2022/07/20 09:25:51;;;;;;;1022.15;927.28;;;38.70;92.90;;;;;;4896014;29;20502;-83
2022/07/20 09:28:18;;;;;;;1030.68;934.65;;;38.70;91.80;;;;;;4895980;29;20131;-83
2022/07/20 09:30:56;;;;;;;1084.65;954.33;;;38.30;91.30;;;;;;4896902;29;20060;-88
2022/07/20 09:33:27;;;;;;;1028.93;930.17;;;38.70;90.00;;;;;;4896059;29;20053;-84
2022/07/20 09:35:54;;;;;;;965.92;878.35;;;38.40;87.50;;;;;;4880188;29;20060;-83
2022/07/20 09:38:22;;;;;;;1016.13;922.63;;;38.60;89.70;;;;;;4880423;29;20057;-84
2022/07/20 09:40:47;;;;;;;1137.57;959.90;;;38.70;87.40;;;;;;4896413;29;20127;-81
2022/07/20 09:43:42;;;;;;;1051.77;943.50;;;38.90;85.00;;;;;;4894183;29;20582;-88
2022/07/20 09:46:22;;;;;;;1019.92;912.67;;;39.30;83.40;;;;;;4886451;29;20056;-86
2022/07/20 09:48:57;;;;;;;1062.18;950.55;;;39.40;76.50;;;;;;4880424;29;20060;-84
2022/07/20 09:51:22;;;;;;;1096.93;982.55;;;38.80;77.80;;;;;;4894737;29;20115;-84
2022/07/20 09:53:50;;;;;;;1113.07;990.17;;;38.90;77.10;;;;;;4895454;29;20048;-83
2022/07/20 09:56:17;;;;;;;1084.38;971.80;;;38.60;71.60;;;;;;4895685;29;20135;-85
2022/07/20 09:58:49;;;;;;;1090.70;975.22;;;38.40;73.80;;;;;;4895329;29;20052;-83
2022/07/20 10:01:23;;;;;;;1028.07;923.42;;;38.80;72.80;;;;;;4880376;29;20091;-82
2022/07/20 10:03:51;;;;;;;1086.05;972.85;;;39.50;74.10;;;;;;4879688;29;20044;-85
2022/07/20 10:06:19;;;;;;;1030.70;931.25;;;38.40;68.20;;;;;;4895904;29;20127;-81
2022/07/20 10:08:46;;;;;;;1104.68;986.78;;;38.60;71.60;;;;;;4895734;29;20056;-82
2022/07/20 10:11:13;;;;;;;1056.82;946.72;;;39.00;67.70;;;;;;4895073;29;20088;-81
2022/07/20 10:13:40;;;;;;;1078.40;965.72;;;39.40;67.70;;;;;;4896432;29;20052;-82
2022/07/20 10:16:15;;;;;;;1068.82;956.03;;;40.10;65.50;;;;;;4896920;29;20450;-82
2022/07/20 10:18:46;;;;;;;1083.78;960.60;;;40.40;58.80;;;;;;4880764;29;20053;-82
2022/07/20 10:21:36;;;;;;;1098.38;974.30;;;39.80;48.90;;;;;;4896789;29;20057;-83
2022/07/20 10:24:29;;;;;;;1105.65;982.03;;;39.80;50.00;;;;;;4879565;29;20128;-81
2022/07/20 10:27:19;;;;;;;1089.72;970.20;;;39.00;52.70;;;;;;4896146;29;20056;-81
2022/07/20 10:29:50;;;;;;;1087.30;966.95;;;39.50;50.30;;;;;;4896201;29;20052;-82
2022/07/20 10:32:22;;;;;;;1085.82;970.55;;;39.00;50.30;;;;;;4895917;29;20056;-83
2022/07/20 10:35:04;;;;;;;1013.78;912.40;;;39.80;51.00;;;;;;4896443;29;20063;-82
2022/07/20 10:37:39;;;;;;;1073.10;956.72;;;40.50;53.40;;;;;;4897718;29;20055;-82
2022/07/20 10:40:09;;;;;;;1075.22;961.42;;;40.50;43.50;;;;;;4883471;29;20091;-82
2022/07/20 10:42:42;;;;;;;1024.95;922.45;;;40.60;45.00;;;;;;4899527;29;20379;-82
2022/07/20 10:45:11;;;;;;;1091.53;975.75;;;40.30;40.20;;;;;;4899567;29;20057;-80
2022/07/20 10:48:00;;;;;;;1104.25;988.35;;;39.90;39.70;;;;;;4899895;29;20051;-82
2022/07/20 10:50:36;;;;;;;1089.15;974.97;;;40.40;38.70;;;;;;4896577;29;20061;-82
2022/07/20 10:53:11;;;;;;;1109.38;992.88;;;40.50;36.60;;;;;;4899991;29;20128;-82
2022/07/20 10:55:36;;;;;;;1107.25;990.25;;;40.70;37.80;;;;;;4900657;29;20052;-82
2022/07/20 10:58:22;;;;;;;1090.07;978.77;;;41.00;37.20;;;;;;4900084;29;20109;-81
2022/07/20 11:00:52;;;;;;;1097.68;982.92;;;41.30;33.60;;;;;;4900880;29;20059;-83
2022/07/20 11:03:23;;;;;;;1085.72;974.67;;;41.30;32.40;;;;;;4899859;29;20057;-82
2022/07/20 11:06:35;;;;;;;1085.97;973.53;;;41.60;31.80;;;;;;4884289;29;20049;-82
2022/07/20 11:09:01;;;;;;;1107.07;990.03;;;41.00;29.40;;;;;;4894591;29;20059;-82
2022/07/20 11:11:36;;;;;;;1086.53;975.07;;;40.20;33.90;;;;;;4899509;29;20057;-82
2022/07/20 11:14:05;;;;;;;1106.97;990.10;;;40.40;32.50;;;;;;4900028;29;20426;-83
2022/07/20 11:16:35;;;;;;;1122.15;996.97;;;40.80;35.70;;;;;;4899769;29;20239;-82
2022/07/20 11:19:02;;;;;;;1113.55;994.72;;;39.30;30.70;;;;;;4900018;29;20100;-83
2022/07/20 11:21:40;;;;;;;1101.68;989.08;;;38.90;33.20;;;;;;4900382;29;20112;-83
2022/07/20 11:24:26;;;;;;;1102.65;987.05;;;39.50;34.80;;;;;;4899592;29;20056;-82
2022/07/20 11:26:53;;;;;;;1297.05;999.90;;;39.80;38.40;;;;;;4898926;29;20131;-83
2022/07/20 11:29:18;;;;;;;1101.68;990.35;;;38.30;34.90;;;;;;4899209;29;20261;-82
2022/07/20 11:31:44;;;;;;;1078.63;970.13;;;38.90;38.10;;;;;;4898805;29;20143;-82
2022/07/20 11:34:13;;;;;;;1095.33;981.73;;;39.30;36.50;;;;;;4898572;29;20044;-83
2022/07/20 11:36:39;;;;;;;1094.00;980.75;;;39.80;34.30;;;;;;4899283;29;20136;-85
2022/07/20 11:39:07;;;;;;;1081.73;972.60;;;40.10;34.80;;;;;;4898722;29;20127;-82
2022/07/20 11:41:37;;;;;;;1101.75;986.58;;;40.30;34.60;;;;;;4898387;29;20139;-84
2022/07/20 11:44:06;;;;;;;1067.15;957.78;;;40.70;31.00;;;;;;4899739;29;20044;-85
2022/07/20 11:46:43;;;;;;;1109.15;991.10;;;39.30;30.70;;;;;;4899209;29;20048;-83
2022/07/20 11:49:14;;;;;;;1107.65;990.55;;;39.70;32.60;;;;;;4897934;29;20056;-84
2022/07/20 11:51:43;;;;;;;1242.43;999.90;;;40.20;32.90;;;;;;4898348;29;20057;-86
2022/07/20 11:54:11;;;;;;;1113.38;993.00;;;39.60;28.10;;;;;;4899371;29;20480;-83
2022/07/20 11:56:37;;;;;;;1183.78;999.58;;;39.50;29.90;;;;;;4899981;29;20049;-82
2022/07/20 11:59:05;;;;;;;1152.50;999.15;;;37.60;30.50;;;;;;4898643;29;20109;-83
2022/07/20 12:01:36;;;;;;;974.75;888.17;;;37.90;33.90;;;;;;4898551;29;20068;-84
2022/07/20 12:04:06;;;;;;;999.17;902.78;;;38.30;36.40;;;;;;4899656;29;20204;-81
2022/07/20 12:06:34;;;;;;;995.47;902.42;;;39.10;31.70;;;;;;4898878;29;20076;-82
2022/07/20 12:09:17;;;;;;;1099.50;983.45;;;39.80;34.40;;;;;;4899287;29;20093;-84
2022/07/20 12:12:06;;;;;;;1137.13;999.90;;;39.90;26.50;;;;;;4882722;29;20491;-82